Impacts TAF Board INFO
FOR SITUATIONAL AWARENESS. NOT TO BE USED FOR FLIGHT PLANNING PURPOSES.
IDs:

KTPA - Tampa Intl Arpt, FL, US

Issued at 2101 UTC 18 Dec 2017
Updated at 2220 UTC 18 Dec 2017
Potential Impact None Slight Moderate High
Time<<19/23Z 20/00Z 20/01Z 20/02Z 20/03Z 20/04Z 20/05Z 20/06Z 20/07Z 20/08Z 20/09Z 20/10Z 20/11Z
Type PRVL
VIS 3
CIG 10
Cover BKN
FltCat MVFR
WX BR
WDir VRB
WSpd 3
WGst --

Raw TAF
KTPA 182101Z 1821/1924 21005KT P6SM FEW040 SCT250
  FM182200 26007KT P6SM SCT250
  FM190100 VRB03KT P6SM SCT250
  FM190800 VRB03KT 3SM BR BKN010


METAR Board
Radar Display
Forecast Discussion

FOR SITUATIONAL AWARENESS. NOT TO BE USED FOR FLIGHT PLANNING PURPOSES.